Aérodrome :
LOGIN :

S'inscrire | Disclaimer

   EN    FR    IT 

 










Légende :    VFR   VFR Marginal   IFR   IFR Intensif   IFR Très Intensif
Visi : 
Plafond : 
>= 8 km
>= 3000ft
5 à 8 km
1000 à 3000 ft
1500m à 5 km
500 à 1000 ft
800 à 1500m
200 à 500 ft
< 800m
< 200 ft
Symboles :   Orages  Brouillard  Fortes neiges  Fortes précipitations  Vent > 20 kt
SIGMETs :   Divers  Orages  Givrage  Turbulence  Onde Orograph.  Cendres Volcan.







- Altitude de l'aérodrome : 459 ft
- Code IATA : CER
- Voir les cartes d'approche


LFRC - Cherbourg / Maupertus

DERNIER METAR :
  • 161200Z AUTO 20016KT 9999 OVC011 07/05 Q1007 TEMPO 3000 BKN004 BECMG 21017G30KT

METARs EXPIRÉS :
  • 161130Z AUTO 20016KT 9000 BKN013 OVC018 08/05 Q1008 TEMPO 3000 BKN004 BECMG 21017G30KT
  • 161100Z AUTO 20014KT 9999 SCT013 BKN022 BKN027 08/05 Q1008 TEMPO 3000 BKN004 BECMG 21017G30KT
  • 161030Z AUTO 20014KT 9999 FEW016 SCT023 BKN036 07/04 Q1009 TEMPO 3000 BKN004 BECMG 21017G30KT
  • 161000Z AUTO 20016KT 9999 FEW012 BKN036 07/04 Q1009 TEMPO 3000 BKN004 BECMG 21017G30KT
  • 160930Z AUTO 19016KT 9999 BKN038 OVC150 06/03 Q1009 TEMPO 3000 BKN004 BECMG 21017G30KT

TAF TAF LFRC
Valide du 16 à 12h jusqu'au 16 à 21h UTC


161100Z 1612/1621 21017G30KT 6000 RADZ BKN014
TEMPO 1612/1617 3000 BKN004
BECMG 1617/1619 27015G25KT SCT030
Pas de NOTAMs connus pour ce terrain.



MET'MAP, la Météo Aéronautique d'un coup d'oeil ! - Copyright ORBIFLY Décembre 2007 - Disclaimer

ORBIFLY MET'MAP TEAM :

Programmation & Développement : Alexandra Zaïnal
Conception & Développement : Baudouin d'Aumeries
Co-Programmation & Développement : Marc-Olivier Méhu
Soutien technique & logistique : Manuel Goepfert

Contact : metmap@orbifly.com




SOURCES & CREDITS :

   NOAA